sensor_id;sensor_type;location;lat;lon;timestamp;P1;durP1;ratioP1;P2;durP2;ratioP2
19505;SDS011;9894;50.852;-0.140;2023-01-30T00:00:33;0.20;;;0.20;;
19505;SDS011;9894;50.852;-0.140;2023-01-30T00:02:59;0.45;;;0.45;;
19505;SDS011;9894;50.852;-0.140;2023-01-30T00:05:26;1.33;;;0.57;;
19505;SDS011;9894;50.852;-0.140;2023-01-30T00:07:52;0.40;;;0.40;;
19505;SDS011;9894;50.852;-0.140;2023-01-30T00:10:18;0.95;;;0.65;;
19505;SDS011;9894;50.852;-0.140;2023-01-30T00:12:44;1.02;;;0.70;;
19505;SDS011;9894;50.852;-0.140;2023-01-30T00:15:10;1.65;;;0.88;;
19505;SDS011;9894;50.852;-0.140;2023-01-30T00:17:36;1.17;;;0.73;;
19505;SDS011;9894;50.852;-0.140;2023-01-30T00:20:02;0.85;;;0.85;;
19505;SDS011;9894;50.852;-0.140;2023-01-30T00:22:29;1.45;;;1.10;;
19505;SDS011;9894;50.852;-0.140;2023-01-30T00:24:55;0.32;;;0.30;;
19505;SDS011;9894;50.852;-0.140;2023-01-30T00:27:21;0.10;;;0.10;;
19505;SDS011;9894;50.852;-0.140;2023-01-30T00:29:47;0.43;;;0.43;;
19505;SDS011;9894;50.852;-0.140;2023-01-30T00:32:13;0.65;;;0.38;;
19505;SDS011;9894;50.852;-0.140;2023-01-30T00:34:39;0.20;;;0.20;;
19505;SDS011;9894;50.852;-0.140;2023-01-30T00:37:05;0.30;;;0.30;;
19505;SDS011;9894;50.852;-0.140;2023-01-30T00:39:31;2.08;;;0.65;;
19505;SDS011;9894;50.852;-0.140;2023-01-30T00:42:00;0.20;;;0.20;;
19505;SDS011;9894;50.852;-0.140;2023-01-30T00:44:45;0.50;;;0.50;;
19505;SDS011;9894;50.852;-0.140;2023-01-30T00:47:30;0.50;;;0.43;;
19505;SDS011;9894;50.852;-0.140;2023-01-30T00:49:56;0.50;;;0.50;;
19505;SDS011;9894;50.852;-0.140;2023-01-30T00:52:22;0.85;;;0.75;;
19505;SDS011;9894;50.852;-0.140;2023-01-30T00:54:48;0.73;;;0.70;;
19505;SDS011;9894;50.852;-0.140;2023-01-30T00:57:16;0.30;;;0.30;;
19505;SDS011;9894;50.852;-0.140;2023-01-30T00:59:42;2.00;;;0.88;;
19505;SDS011;9894;50.852;-0.140;2023-01-30T01:02:08;0.32;;;0.32;;
19505;SDS011;9894;50.852;-0.140;2023-01-30T01:04:34;0.80;;;0.80;;
19505;SDS011;9894;50.852;-0.140;2023-01-30T01:07:13;2.55;;;1.48;;
19505;SDS011;9894;50.852;-0.140;2023-01-30T01:09:39;22.17;;;0.93;;
19505;SDS011;9894;50.852;-0.140;2023-01-30T01:12:06;0.55;;;0.47;;
19505;SDS011;9894;50.852;-0.140;2023-01-30T01:14:32;0.20;;;0.20;;
19505;SDS011;9894;50.852;-0.140;2023-01-30T01:16:58;1.50;;;0.75;;
19505;SDS011;9894;50.852;-0.140;2023-01-30T01:19:25;0.75;;;0.75;;
19505;SDS011;9894;50.852;-0.140;2023-01-30T01:21:51;0.20;;;0.20;;
19505;SDS011;9894;50.852;-0.140;2023-01-30T01:24:17;2.13;;;0.70;;
19505;SDS011;9894;50.852;-0.140;2023-01-30T01:26:43;0.20;;;0.20;;
19505;SDS011;9894;50.852;-0.140;2023-01-30T01:29:13;0.57;;;0.57;;
19505;SDS011;9894;50.852;-0.140;2023-01-30T01:31:39;0.20;;;0.20;;
19505;SDS011;9894;50.852;-0.140;2023-01-30T01:34:06;1.10;;;0.95;;
19505;SDS011;9894;50.852;-0.140;2023-01-30T01:36:32;0.20;;;0.20;;
19505;SDS011;9894;50.852;-0.140;2023-01-30T01:38:58;0.63;;;0.63;;
19505;SDS011;9894;50.852;-0.140;2023-01-30T01:41:24;0.40;;;0.40;;
19505;SDS011;9894;50.852;-0.140;2023-01-30T01:46:33;1.83;;;0.98;;
19505;SDS011;9894;50.852;-0.140;2023-01-30T01:49:02;0.22;;;0.22;;
19505;SDS011;9894;50.852;-0.140;2023-01-30T01:53:57;0.40;;;0.40;;
19505;SDS011;9894;50.852;-0.140;2023-01-30T01:56:25;1.63;;;1.17;;
19505;SDS011;9894;50.852;-0.140;2023-01-30T01:58:52;0.20;;;0.20;;
19505;SDS011;9894;50.852;-0.140;2023-01-30T02:01:19;0.35;;;0.35;;
19505;SDS011;9894;50.852;-0.140;2023-01-30T02:03:50;0.63;;;0.60;;
19505;SDS011;9894;50.852;-0.140;2023-01-30T02:06:17;0.22;;;0.22;;
19505;SDS011;9894;50.852;-0.140;2023-01-30T02:08:44;0.20;;;0.20;;
19505;SDS011;9894;50.852;-0.140;2023-01-30T02:13:41;0.15;;;0.15;;
19505;SDS011;9894;50.852;-0.140;2023-01-30T02:16:08;0.20;;;0.20;;
19505;SDS011;9894;50.852;-0.140;2023-01-30T02:18:35;0.20;;;0.20;;
19505;SDS011;9894;50.852;-0.140;2023-01-30T02:31:29;0.10;;;0.10;;
19505;SDS011;9894;50.852;-0.140;2023-01-30T02:45:09;0.90;;;0.30;;
19505;SDS011;9894;50.852;-0.140;2023-01-30T02:47:47;0.60;;;0.60;;
19505;SDS011;9894;50.852;-0.140;2023-01-30T02:50:24;0.20;;;0.20;;
19505;SDS011;9894;50.852;-0.140;2023-01-30T02:52:51;3.55;;;0.55;;
19505;SDS011;9894;50.852;-0.140;2023-01-30T02:55:19;0.20;;;0.20;;
19505;SDS011;9894;50.852;-0.140;2023-01-30T02:57:45;0.30;;;0.30;;
19505;SDS011;9894;50.852;-0.140;2023-01-30T03:00:11;0.95;;;0.95;;
19505;SDS011;9894;50.852;-0.140;2023-01-30T03:05:18;2.55;;;0.73;;
19505;SDS011;9894;50.852;-0.140;2023-01-30T03:13:23;0.20;;;0.20;;
19505;SDS011;9894;50.852;-0.140;2023-01-30T03:15:30;0.50;;;0.50;;
19505;SDS011;9894;50.852;-0.140;2023-01-30T03:17:58;0.20;;;0.20;;
19505;SDS011;9894;50.852;-0.140;2023-01-30T03:20:26;0.10;;;0.10;;
19505;SDS011;9894;50.852;-0.140;2023-01-30T03:22:52;0.55;;;0.55;;
19505;SDS011;9894;50.852;-0.140;2023-01-30T03:25:19;0.50;;;0.50;;
19505;SDS011;9894;50.852;-0.140;2023-01-30T03:27:46;0.20;;;0.20;;
19505;SDS011;9894;50.852;-0.140;2023-01-30T03:30:13;0.88;;;0.80;;
19505;SDS011;9894;50.852;-0.140;2023-01-30T03:32:39;0.20;;;0.20;;
19505;SDS011;9894;50.852;-0.140;2023-01-30T03:35:05;0.20;;;0.20;;
19505;SDS011;9894;50.852;-0.140;2023-01-30T03:37:31;0.45;;;0.45;;
19505;SDS011;9894;50.852;-0.140;2023-01-30T03:39:58;0.75;;;0.65;;
19505;SDS011;9894;50.852;-0.140;2023-01-30T03:42:24;1.27;;;0.95;;
19505;SDS011;9894;50.852;-0.140;2023-01-30T03:44:50;1.42;;;0.45;;
19505;SDS011;9894;50.852;-0.140;2023-01-30T03:47:16;0.47;;;0.47;;
19505;SDS011;9894;50.852;-0.140;2023-01-30T03:49:42;0.45;;;0.43;;
19505;SDS011;9894;50.852;-0.140;2023-01-30T03:52:08;0.20;;;0.20;;
19505;SDS011;9894;50.852;-0.140;2023-01-30T03:54:34;0.93;;;0.50;;
19505;SDS011;9894;50.852;-0.140;2023-01-30T03:57:00;0.20;;;0.20;;
19505;SDS011;9894;50.852;-0.140;2023-01-30T03:59:26;0.20;;;0.20;;
19505;SDS011;9894;50.852;-0.140;2023-01-30T04:01:53;0.20;;;0.20;;
19505;SDS011;9894;50.852;-0.140;2023-01-30T04:04:19;0.20;;;0.20;;
19505;SDS011;9894;50.852;-0.140;2023-01-30T04:06:45;0.82;;;0.60;;
19505;SDS011;9894;50.852;-0.140;2023-01-30T04:09:11;0.65;;;0.60;;
19505;SDS011;9894;50.852;-0.140;2023-01-30T04:11:37;0.20;;;0.20;;
19505;SDS011;9894;50.852;-0.140;2023-01-30T04:14:03;0.20;;;0.20;;
19505;SDS011;9894;50.852;-0.140;2023-01-30T04:16:29;0.20;;;0.20;;
19505;SDS011;9894;50.852;-0.140;2023-01-30T04:18:55;0.20;;;0.20;;
19505;SDS011;9894;50.852;-0.140;2023-01-30T04:21:21;3.50;;;1.05;;
19505;SDS011;9894;50.852;-0.140;2023-01-30T04:23:48;0.20;;;0.20;;
19505;SDS011;9894;50.852;-0.140;2023-01-30T04:26:14;0.32;;;0.32;;
19505;SDS011;9894;50.852;-0.140;2023-01-30T04:28:40;0.20;;;0.20;;
19505;SDS011;9894;50.852;-0.140;2023-01-30T04:31:08;0.43;;;0.30;;
19505;SDS011;9894;50.852;-0.140;2023-01-30T04:33:34;0.20;;;0.20;;
19505;SDS011;9894;50.852;-0.140;2023-01-30T04:36:01;0.20;;;0.20;;
19505;SDS011;9894;50.852;-0.140;2023-01-30T04:38:29;0.40;;;0.40;;
19505;SDS011;9894;50.852;-0.140;2023-01-30T04:40:56;0.20;;;0.20;;
19505;SDS011;9894;50.852;-0.140;2023-01-30T04:43:23;0.20;;;0.20;;
19505;SDS011;9894;50.852;-0.140;2023-01-30T04:45:50;0.20;;;0.20;;
19505;SDS011;9894;50.852;-0.140;2023-01-30T04:48:16;0.20;;;0.20;;
19505;SDS011;9894;50.852;-0.140;2023-01-30T04:50:43;0.20;;;0.20;;
19505;SDS011;9894;50.852;-0.140;2023-01-30T04:53:09;0.63;;;0.57;;
19505;SDS011;9894;50.852;-0.140;2023-01-30T04:55:36;0.20;;;0.20;;
19505;SDS011;9894;50.852;-0.140;2023-01-30T04:58:02;0.20;;;0.20;;
19505;SDS011;9894;50.852;-0.140;2023-01-30T05:00:28;0.20;;;0.20;;
19505;SDS011;9894;50.852;-0.140;2023-01-30T05:02:55;0.20;;;0.20;;
19505;SDS011;9894;50.852;-0.140;2023-01-30T05:05:24;0.10;;;0.10;;
19505;SDS011;9894;50.852;-0.140;2023-01-30T05:07:51;0.13;;;0.13;;
19505;SDS011;9894;50.852;-0.140;2023-01-30T05:10:17;0.10;;;0.10;;
19505;SDS011;9894;50.852;-0.140;2023-01-30T05:12:43;0.20;;;0.20;;
19505;SDS011;9894;50.852;-0.140;2023-01-30T05:15:10;0.13;;;0.13;;
19505;SDS011;9894;50.852;-0.140;2023-01-30T05:17:36;0.35;;;0.22;;
19505;SDS011;9894;50.852;-0.140;2023-01-30T05:20:03;0.52;;;0.52;;
19505;SDS011;9894;50.852;-0.140;2023-01-30T05:22:30;0.20;;;0.20;;
19505;SDS011;9894;50.852;-0.140;2023-01-30T05:24:56;0.20;;;0.20;;
19505;SDS011;9894;50.852;-0.140;2023-01-30T05:27:22;0.30;;;0.30;;
19505;SDS011;9894;50.852;-0.140;2023-01-30T05:29:48;0.20;;;0.20;;
19505;SDS011;9894;50.852;-0.140;2023-01-30T05:32:14;0.13;;;0.13;;
19505;SDS011;9894;50.852;-0.140;2023-01-30T05:34:41;0.15;;;0.15;;
19505;SDS011;9894;50.852;-0.140;2023-01-30T05:37:07;0.20;;;0.20;;
19505;SDS011;9894;50.852;-0.140;2023-01-30T05:39:33;0.20;;;0.20;;
19505;SDS011;9894;50.852;-0.140;2023-01-30T05:42:00;0.43;;;0.43;;
19505;SDS011;9894;50.852;-0.140;2023-01-30T05:44:26;0.20;;;0.20;;
19505;SDS011;9894;50.852;-0.140;2023-01-30T05:46:52;0.20;;;0.20;;
19505;SDS011;9894;50.852;-0.140;2023-01-30T05:49:18;0.10;;;0.10;;
19505;SDS011;9894;50.852;-0.140;2023-01-30T05:51:44;0.20;;;0.20;;
19505;SDS011;9894;50.852;-0.140;2023-01-30T05:54:10;0.20;;;0.20;;
19505;SDS011;9894;50.852;-0.140;2023-01-30T05:56:36;0.20;;;0.20;;
19505;SDS011;9894;50.852;-0.140;2023-01-30T05:59:02;0.17;;;0.17;;
19505;SDS011;9894;50.852;-0.140;2023-01-30T06:01:28;0.20;;;0.20;;
19505;SDS011;9894;50.852;-0.140;2023-01-30T06:03:55;0.20;;;0.20;;
19505;SDS011;9894;50.852;-0.140;2023-01-30T06:06:22;0.20;;;0.20;;
19505;SDS011;9894;50.852;-0.140;2023-01-30T06:08:51;0.40;;;0.40;;
19505;SDS011;9894;50.852;-0.140;2023-01-30T06:11:18;0.20;;;0.20;;
19505;SDS011;9894;50.852;-0.140;2023-01-30T06:13:44;0.20;;;0.20;;
19505;SDS011;9894;50.852;-0.140;2023-01-30T06:16:10;0.20;;;0.20;;
19505;SDS011;9894;50.852;-0.140;2023-01-30T06:18:37;0.20;;;0.20;;
19505;SDS011;9894;50.852;-0.140;2023-01-30T06:21:04;1.05;;;0.80;;
19505;SDS011;9894;50.852;-0.140;2023-01-30T06:23:30;0.20;;;0.20;;
19505;SDS011;9894;50.852;-0.140;2023-01-30T06:25:56;0.20;;;0.20;;
19505;SDS011;9894;50.852;-0.140;2023-01-30T06:28:22;0.30;;;0.30;;
19505;SDS011;9894;50.852;-0.140;2023-01-30T06:30:49;1.25;;;0.65;;
19505;SDS011;9894;50.852;-0.140;2023-01-30T06:33:15;0.20;;;0.20;;
19505;SDS011;9894;50.852;-0.140;2023-01-30T06:35:42;0.20;;;0.20;;
19505;SDS011;9894;50.852;-0.140;2023-01-30T06:38:09;0.20;;;0.20;;
19505;SDS011;9894;50.852;-0.140;2023-01-30T06:40:37;0.60;;;0.60;;
19505;SDS011;9894;50.852;-0.140;2023-01-30T06:43:03;0.20;;;0.20;;
19505;SDS011;9894;50.852;-0.140;2023-01-30T06:45:29;6.18;;;1.35;;
19505;SDS011;9894;50.852;-0.140;2023-01-30T06:47:56;0.35;;;0.35;;
19505;SDS011;9894;50.852;-0.140;2023-01-30T06:50:23;4.65;;;0.60;;
19505;SDS011;9894;50.852;-0.140;2023-01-30T06:52:49;1.55;;;0.55;;
19505;SDS011;9894;50.852;-0.140;2023-01-30T06:55:16;0.50;;;0.28;;
19505;SDS011;9894;50.852;-0.140;2023-01-30T06:57:43;0.30;;;0.30;;
19505;SDS011;9894;50.852;-0.140;2023-01-30T07:00:11;0.98;;;0.77;;
19505;SDS011;9894;50.852;-0.140;2023-01-30T07:02:37;0.20;;;0.20;;
19505;SDS011;9894;50.852;-0.140;2023-01-30T07:05:04;0.20;;;0.20;;
19505;SDS011;9894;50.852;-0.140;2023-01-30T07:07:30;0.20;;;0.20;;
19505;SDS011;9894;50.852;-0.140;2023-01-30T07:09:57;0.20;;;0.20;;
19505;SDS011;9894;50.852;-0.140;2023-01-30T07:12:23;0.20;;;0.20;;
19505;SDS011;9894;50.852;-0.140;2023-01-30T07:14:50;0.20;;;0.20;;
19505;SDS011;9894;50.852;-0.140;2023-01-30T07:17:16;0.20;;;0.20;;
19505;SDS011;9894;50.852;-0.140;2023-01-30T07:19:42;0.20;;;0.20;;
19505;SDS011;9894;50.852;-0.140;2023-01-30T07:22:09;0.20;;;0.20;;
19505;SDS011;9894;50.852;-0.140;2023-01-30T07:24:35;0.20;;;0.20;;
19505;SDS011;9894;50.852;-0.140;2023-01-30T07:27:02;0.20;;;0.20;;
19505;SDS011;9894;50.852;-0.140;2023-01-30T07:29:28;0.20;;;0.20;;
19505;SDS011;9894;50.852;-0.140;2023-01-30T07:31:54;0.20;;;0.20;;
19505;SDS011;9894;50.852;-0.140;2023-01-30T07:34:20;0.20;;;0.20;;
19505;SDS011;9894;50.852;-0.140;2023-01-30T07:36:46;0.20;;;0.20;;
19505;SDS011;9894;50.852;-0.140;2023-01-30T07:39:13;0.30;;;0.30;;
19505;SDS011;9894;50.852;-0.140;2023-01-30T07:41:39;0.10;;;0.10;;
19505;SDS011;9894;50.852;-0.140;2023-01-30T07:44:05;0.20;;;0.20;;
19505;SDS011;9894;50.852;-0.140;2023-01-30T07:46:31;0.20;;;0.20;;
19505;SDS011;9894;50.852;-0.140;2023-01-30T07:49:02;0.20;;;0.20;;
19505;SDS011;9894;50.852;-0.140;2023-01-30T07:51:29;0.43;;;0.40;;
19505;SDS011;9894;50.852;-0.140;2023-01-30T07:53:55;0.20;;;0.20;;
19505;SDS011;9894;50.852;-0.140;2023-01-30T07:56:21;8.48;;;0.82;;
19505;SDS011;9894;50.852;-0.140;2023-01-30T07:58:48;7.97;;;0.90;;
19505;SDS011;9894;50.852;-0.140;2023-01-30T08:01:14;0.20;;;0.20;;
19505;SDS011;9894;50.852;-0.140;2023-01-30T08:03:40;0.17;;;0.17;;
19505;SDS011;9894;50.852;-0.140;2023-01-30T08:06:08;0.10;;;0.10;;
19505;SDS011;9894;50.852;-0.140;2023-01-30T08:08:34;0.10;;;0.10;;
19505;SDS011;9894;50.852;-0.140;2023-01-30T08:11:00;0.20;;;0.20;;
19505;SDS011;9894;50.852;-0.140;2023-01-30T08:13:26;0.17;;;0.17;;
19505;SDS011;9894;50.852;-0.140;2023-01-30T08:15:52;0.25;;;0.25;;
19505;SDS011;9894;50.852;-0.140;2023-01-30T08:18:18;3.30;;;0.50;;
19505;SDS011;9894;50.852;-0.140;2023-01-30T08:20:44;0.10;;;0.10;;
19505;SDS011;9894;50.852;-0.140;2023-01-30T08:23:10;0.10;;;0.10;;
19505;SDS011;9894;50.852;-0.140;2023-01-30T08:25:36;0.93;;;0.30;;
19505;SDS011;9894;50.852;-0.140;2023-01-30T08:28:03;0.10;;;0.10;;
19505;SDS011;9894;50.852;-0.140;2023-01-30T08:30:29;0.10;;;0.10;;
19505;SDS011;9894;50.852;-0.140;2023-01-30T08:32:56;0.10;;;0.10;;
19505;SDS011;9894;50.852;-0.140;2023-01-30T08:35:22;0.10;;;0.10;;
19505;SDS011;9894;50.852;-0.140;2023-01-30T08:37:48;0.10;;;0.10;;
19505;SDS011;9894;50.852;-0.140;2023-01-30T08:40:15;0.10;;;0.10;;
19505;SDS011;9894;50.852;-0.140;2023-01-30T08:42:44;0.10;;;0.10;;
19505;SDS011;9894;50.852;-0.140;2023-01-30T08:45:10;0.10;;;0.10;;
19505;SDS011;9894;50.852;-0.140;2023-01-30T08:47:36;0.10;;;0.10;;
19505;SDS011;9894;50.852;-0.140;2023-01-30T08:50:03;0.10;;;0.10;;
19505;SDS011;9894;50.852;-0.140;2023-01-30T08:52:30;0.30;;;0.30;;
19505;SDS011;9894;50.852;-0.140;2023-01-30T08:54:57;0.15;;;0.15;;
19505;SDS011;9894;50.852;-0.140;2023-01-30T08:57:23;0.17;;;0.17;;
19505;SDS011;9894;50.852;-0.140;2023-01-30T08:59:49;3.22;;;0.95;;
19505;SDS011;9894;50.852;-0.140;2023-01-30T09:02:15;0.15;;;0.15;;
19505;SDS011;9894;50.852;-0.140;2023-01-30T09:04:41;0.30;;;0.20;;
19505;SDS011;9894;50.852;-0.140;2023-01-30T09:07:07;0.10;;;0.10;;
19505;SDS011;9894;50.852;-0.140;2023-01-30T09:09:34;0.20;;;0.20;;
19505;SDS011;9894;50.852;-0.140;2023-01-30T09:12:00;0.20;;;0.20;;
19505;SDS011;9894;50.852;-0.140;2023-01-30T09:14:26;0.20;;;0.20;;
19505;SDS011;9894;50.852;-0.140;2023-01-30T09:16:52;0.20;;;0.20;;
19505;SDS011;9894;50.852;-0.140;2023-01-30T09:19:21;0.17;;;0.17;;
19505;SDS011;9894;50.852;-0.140;2023-01-30T09:21:48;0.20;;;0.20;;
19505;SDS011;9894;50.852;-0.140;2023-01-30T09:24:14;1.40;;;0.50;;
19505;SDS011;9894;50.852;-0.140;2023-01-30T09:26:40;0.20;;;0.20;;
19505;SDS011;9894;50.852;-0.140;2023-01-30T09:29:10;0.25;;;0.25;;
19505;SDS011;9894;50.852;-0.140;2023-01-30T09:31:36;0.20;;;0.20;;
19505;SDS011;9894;50.852;-0.140;2023-01-30T09:34:02;0.20;;;0.20;;
19505;SDS011;9894;50.852;-0.140;2023-01-30T09:36:28;0.45;;;0.45;;
19505;SDS011;9894;50.852;-0.140;2023-01-30T09:38:54;0.20;;;0.20;;
19505;SDS011;9894;50.852;-0.140;2023-01-30T09:54:37;0.20;;;0.20;;
19505;SDS011;9894;50.852;-0.140;2023-01-30T09:57:15;0.20;;;0.20;;
19505;SDS011;9894;50.852;-0.140;2023-01-30T09:59:56;0.20;;;0.20;;
19505;SDS011;9894;50.852;-0.140;2023-01-30T10:04:59;0.20;;;0.20;;
19505;SDS011;9894;50.852;-0.140;2023-01-30T10:07:33;0.30;;;0.30;;
19505;SDS011;9894;50.852;-0.140;2023-01-30T10:15:16;0.30;;;0.30;;
19505;SDS011;9894;50.852;-0.140;2023-01-30T10:22:54;0.30;;;0.30;;
19505;SDS011;9894;50.852;-0.140;2023-01-30T10:27:52;0.30;;;0.30;;
19505;SDS011;9894;50.852;-0.140;2023-01-30T10:30:20;2.13;;;0.95;;
19505;SDS011;9894;50.852;-0.140;2023-01-30T10:32:53;0.60;;;0.60;;
19505;SDS011;9894;50.852;-0.140;2023-01-30T10:35:24;0.95;;;0.95;;
19505;SDS011;9894;50.852;-0.140;2023-01-30T10:37:57;0.47;;;0.47;;
19505;SDS011;9894;50.852;-0.140;2023-01-30T10:50:56;0.50;;;0.50;;
19505;SDS011;9894;50.852;-0.140;2023-01-30T10:53:34;2.85;;;1.17;;
19505;SDS011;9894;50.852;-0.140;2023-01-30T10:56:13;1.83;;;1.58;;
19505;SDS011;9894;50.852;-0.140;2023-01-30T10:59:28;3.78;;;2.28;;
19505;SDS011;9894;50.852;-0.140;2023-01-30T11:01:31;3.08;;;2.88;;
19505;SDS011;9894;50.852;-0.140;2023-01-30T11:04:01;7.43;;;3.67;;
19505;SDS011;9894;50.852;-0.140;2023-01-30T11:06:28;6.20;;;3.90;;
19505;SDS011;9894;50.852;-0.140;2023-01-30T11:08:56;4.57;;;4.28;;
19505;SDS011;9894;50.852;-0.140;2023-01-30T11:13:59;10.90;;;4.35;;
19505;SDS011;9894;50.852;-0.140;2023-01-30T11:16:25;4.20;;;4.00;;
19505;SDS011;9894;50.852;-0.140;2023-01-30T11:18:52;5.22;;;4.72;;
19505;SDS011;9894;50.852;-0.140;2023-01-30T11:21:19;4.20;;;4.00;;
19505;SDS011;9894;50.852;-0.140;2023-01-30T11:23:47;4.28;;;3.75;;
19505;SDS011;9894;50.852;-0.140;2023-01-30T11:26:19;6.38;;;4.63;;
19505;SDS011;9894;50.852;-0.140;2023-01-30T11:28:46;6.05;;;5.07;;
19505;SDS011;9894;50.852;-0.140;2023-01-30T11:31:15;3.60;;;3.40;;
19505;SDS011;9894;50.852;-0.140;2023-01-30T11:33:41;3.40;;;3.20;;
19505;SDS011;9894;50.852;-0.140;2023-01-30T11:36:22;3.60;;;3.40;;
19505;SDS011;9894;50.852;-0.140;2023-01-30T11:38:55;4.55;;;4.25;;
19505;SDS011;9894;50.852;-0.140;2023-01-30T11:41:21;4.70;;;4.40;;
19505;SDS011;9894;50.852;-0.140;2023-01-30T11:43:48;7.97;;;4.07;;
19505;SDS011;9894;50.852;-0.140;2023-01-30T11:46:18;4.30;;;4.10;;
19505;SDS011;9894;50.852;-0.140;2023-01-30T11:48:47;4.70;;;4.40;;
19505;SDS011;9894;50.852;-0.140;2023-01-30T11:51:14;5.15;;;4.78;;
19505;SDS011;9894;50.852;-0.140;2023-01-30T11:58:35;5.35;;;4.85;;
19505;SDS011;9894;50.852;-0.140;2023-01-30T12:01:01;5.20;;;4.80;;
19505;SDS011;9894;50.852;-0.140;2023-01-30T12:03:29;5.00;;;4.60;;
19505;SDS011;9894;50.852;-0.140;2023-01-30T12:06:04;4.30;;;4.10;;
19505;SDS011;9894;50.852;-0.140;2023-01-30T12:08:32;5.07;;;4.68;;
19505;SDS011;9894;50.852;-0.140;2023-01-30T12:11:00;4.30;;;4.00;;
19505;SDS011;9894;50.852;-0.140;2023-01-30T12:13:37;4.10;;;3.90;;
19505;SDS011;9894;50.852;-0.140;2023-01-30T12:19:04;4.70;;;4.40;;
19505;SDS011;9894;50.852;-0.140;2023-01-30T12:21:41;4.20;;;4.00;;
19505;SDS011;9894;50.852;-0.140;2023-01-30T12:26:50;4.70;;;4.40;;
19505;SDS011;9894;50.852;-0.140;2023-01-30T12:29:26;4.03;;;3.83;;
19505;SDS011;9894;50.852;-0.140;2023-01-30T12:31:58;4.30;;;4.10;;
19505;SDS011;9894;50.852;-0.140;2023-01-30T12:34:27;7.85;;;4.45;;
19505;SDS011;9894;50.852;-0.140;2023-01-30T12:50:14;4.25;;;4.05;;
19505;SDS011;9894;50.852;-0.140;2023-01-30T12:55:20;4.40;;;4.20;;
19505;SDS011;9894;50.852;-0.140;2023-01-30T12:57:53;4.47;;;4.18;;
19505;SDS011;9894;50.852;-0.140;2023-01-30T13:18:47;4.60;;;4.30;;
19505;SDS011;9894;50.852;-0.140;2023-01-30T13:26:26;5.32;;;4.55;;
19505;SDS011;9894;50.852;-0.140;2023-01-30T13:28:55;4.30;;;4.10;;
19505;SDS011;9894;50.852;-0.140;2023-01-30T13:31:23;4.40;;;4.20;;
19505;SDS011;9894;50.852;-0.140;2023-01-30T13:33:51;4.20;;;4.00;;
19505;SDS011;9894;50.852;-0.140;2023-01-30T13:36:21;4.20;;;4.00;;
19505;SDS011;9894;50.852;-0.140;2023-01-30T13:38:57;4.50;;;4.20;;
19505;SDS011;9894;50.852;-0.140;2023-01-30T13:41:24;4.30;;;4.10;;
19505;SDS011;9894;50.852;-0.140;2023-01-30T13:43:54;4.50;;;4.20;;
19505;SDS011;9894;50.852;-0.140;2023-01-30T13:46:25;4.30;;;4.10;;
19505;SDS011;9894;50.852;-0.140;2023-01-30T13:54:09;4.20;;;4.00;;
19505;SDS011;9894;50.852;-0.140;2023-01-30T13:56:45;4.70;;;4.40;;
19505;SDS011;9894;50.852;-0.140;2023-01-30T13:59:24;4.30;;;4.10;;
19505;SDS011;9894;50.852;-0.140;2023-01-30T14:07:38;4.30;;;4.10;;
19505;SDS011;9894;50.852;-0.140;2023-01-30T14:12:36;4.20;;;4.00;;
19505;SDS011;9894;50.852;-0.140;2023-01-30T14:15:05;4.10;;;3.90;;
19505;SDS011;9894;50.852;-0.140;2023-01-30T14:17:32;4.07;;;3.88;;
19505;SDS011;9894;50.852;-0.140;2023-01-30T14:22:25;4.50;;;4.20;;
19505;SDS011;9894;50.852;-0.140;2023-01-30T14:27:38;4.30;;;4.10;;
19505;SDS011;9894;50.852;-0.140;2023-01-30T14:30:31;4.30;;;4.10;;
19505;SDS011;9894;50.852;-0.140;2023-01-30T14:32:51;4.20;;;4.00;;
19505;SDS011;9894;50.852;-0.140;2023-01-30T14:35:22;4.30;;;4.10;;
19505;SDS011;9894;50.852;-0.140;2023-01-30T14:37:49;4.50;;;4.20;;
19505;SDS011;9894;50.852;-0.140;2023-01-30T14:45:48;4.45;;;4.15;;
19505;SDS011;9894;50.852;-0.140;2023-01-30T14:48:25;4.20;;;4.00;;
19505;SDS011;9894;50.852;-0.140;2023-01-30T14:53:46;4.32;;;4.13;;
19505;SDS011;9894;50.852;-0.140;2023-01-30T14:56:14;4.32;;;4.13;;
19505;SDS011;9894;50.852;-0.140;2023-01-30T14:58:49;9.77;;;4.60;;
19505;SDS011;9894;50.852;-0.140;2023-01-30T15:01:16;4.50;;;4.20;;
19505;SDS011;9894;50.852;-0.140;2023-01-30T15:03:44;6.28;;;5.88;;
19505;SDS011;9894;50.852;-0.140;2023-01-30T15:06:11;4.60;;;4.30;;
19505;SDS011;9894;50.852;-0.140;2023-01-30T15:08:39;4.38;;;4.18;;
19505;SDS011;9894;50.852;-0.140;2023-01-30T15:11:15;4.78;;;4.47;;
19505;SDS011;9894;50.852;-0.140;2023-01-30T15:13:45;4.50;;;4.30;;
19505;SDS011;9894;50.852;-0.140;2023-01-30T15:19:13;4.40;;;4.20;;
19505;SDS011;9894;50.852;-0.140;2023-01-30T15:32:26;5.10;;;4.80;;
19505;SDS011;9894;50.852;-0.140;2023-01-30T15:37:46;4.20;;;4.00;;
19505;SDS011;9894;50.852;-0.140;2023-01-30T15:47:50;3.90;;;3.70;;
19505;SDS011;9894;50.852;-0.140;2023-01-30T15:50:19;4.50;;;4.20;;
19505;SDS011;9894;50.852;-0.140;2023-01-30T15:52:46;4.10;;;3.90;;
19505;SDS011;9894;50.852;-0.140;2023-01-30T15:55:22;4.30;;;4.10;;
19505;SDS011;9894;50.852;-0.140;2023-01-30T15:57:50;4.30;;;4.10;;
19505;SDS011;9894;50.852;-0.140;2023-01-30T16:00:25;4.30;;;4.10;;
19505;SDS011;9894;50.852;-0.140;2023-01-30T16:02:52;4.22;;;4.03;;
19505;SDS011;9894;50.852;-0.140;2023-01-30T16:05:19;4.10;;;3.90;;
19505;SDS011;9894;50.852;-0.140;2023-01-30T16:07:46;4.20;;;4.00;;
19505;SDS011;9894;50.852;-0.140;2023-01-30T16:10:15;4.22;;;4.03;;
19505;SDS011;9894;50.852;-0.140;2023-01-30T16:12:41;4.30;;;4.10;;
19505;SDS011;9894;50.852;-0.140;2023-01-30T16:17:44;4.60;;;4.30;;
19505;SDS011;9894;50.852;-0.140;2023-01-30T16:20:11;4.10;;;3.90;;
19505;SDS011;9894;50.852;-0.140;2023-01-30T16:22:40;4.80;;;4.50;;
19505;SDS011;9894;50.852;-0.140;2023-01-30T16:25:10;4.60;;;4.30;;
19505;SDS011;9894;50.852;-0.140;2023-01-30T16:27:40;4.20;;;4.00;;
19505;SDS011;9894;50.852;-0.140;2023-01-30T16:30:07;4.90;;;4.60;;
19505;SDS011;9894;50.852;-0.140;2023-01-30T16:32:34;4.20;;;4.00;;
19505;SDS011;9894;50.852;-0.140;2023-01-30T16:35:25;4.20;;;4.00;;
19505;SDS011;9894;50.852;-0.140;2023-01-30T16:37:53;4.70;;;4.40;;
19505;SDS011;9894;50.852;-0.140;2023-01-30T16:40:21;4.80;;;4.50;;
19505;SDS011;9894;50.852;-0.140;2023-01-30T16:42:59;6.43;;;5.15;;
19505;SDS011;9894;50.852;-0.140;2023-01-30T16:48:22;4.03;;;3.83;;
19505;SDS011;9894;50.852;-0.140;2023-01-30T16:53:25;4.30;;;4.10;;
19505;SDS011;9894;50.852;-0.140;2023-01-30T16:55:57;4.20;;;4.00;;
19505;SDS011;9894;50.852;-0.140;2023-01-30T16:58:24;4.72;;;4.43;;
19505;SDS011;9894;50.852;-0.140;2023-01-30T17:01:11;4.43;;;4.22;;
19505;SDS011;9894;50.852;-0.140;2023-01-30T17:03:38;4.60;;;4.30;;
19505;SDS011;9894;50.852;-0.140;2023-01-30T17:06:07;4.30;;;4.10;;
19505;SDS011;9894;50.852;-0.140;2023-01-30T17:11:27;5.00;;;4.70;;
19505;SDS011;9894;50.852;-0.140;2023-01-30T17:16:38;4.40;;;4.20;;
19505;SDS011;9894;50.852;-0.140;2023-01-30T17:19:05;10.60;;;5.20;;
19505;SDS011;9894;50.852;-0.140;2023-01-30T17:21:36;4.90;;;4.60;;
19505;SDS011;9894;50.852;-0.140;2023-01-30T17:24:10;5.10;;;4.80;;
19505;SDS011;9894;50.852;-0.140;2023-01-30T17:26:37;6.22;;;5.72;;
19505;SDS011;9894;50.852;-0.140;2023-01-30T17:29:03;5.15;;;4.85;;
19505;SDS011;9894;50.852;-0.140;2023-01-30T17:31:29;5.00;;;4.70;;
19505;SDS011;9894;50.852;-0.140;2023-01-30T17:33:55;5.03;;;4.72;;
19505;SDS011;9894;50.852;-0.140;2023-01-30T17:36:26;4.70;;;4.40;;
19505;SDS011;9894;50.852;-0.140;2023-01-30T17:38:52;4.70;;;4.40;;
19505;SDS011;9894;50.852;-0.140;2023-01-30T17:41:20;9.75;;;8.90;;
19505;SDS011;9894;50.852;-0.140;2023-01-30T17:43:46;5.35;;;5.05;;
19505;SDS011;9894;50.852;-0.140;2023-01-30T17:46:12;5.30;;;5.00;;
19505;SDS011;9894;50.852;-0.140;2023-01-30T17:48:39;5.10;;;4.80;;
19505;SDS011;9894;50.852;-0.140;2023-01-30T17:51:05;5.40;;;5.10;;
19505;SDS011;9894;50.852;-0.140;2023-01-30T17:53:31;5.57;;;5.28;;
19505;SDS011;9894;50.852;-0.140;2023-01-30T17:55:57;6.30;;;5.90;;
19505;SDS011;9894;50.852;-0.140;2023-01-30T17:58:23;6.00;;;5.60;;
19505;SDS011;9894;50.852;-0.140;2023-01-30T18:00:49;5.97;;;5.57;;
19505;SDS011;9894;50.852;-0.140;2023-01-30T18:03:17;5.50;;;5.20;;
19505;SDS011;9894;50.852;-0.140;2023-01-30T18:05:43;5.15;;;4.85;;